Landels-Hill Big Creek Reserve Entrance, California Weather observations

Data are for 10 minute period ending at time listed.
 Day   Time   Solar   Ave.   Ave.  Ave.  Vector  Max.   Baro.   Total    
  of    of     Rad.   Air    Rel.  Wind   Wind   Wind  Press.  Precip.   
Year   Day            Temp.  Hum.  Speed  Dir.   Gust                    
2017   (PST)  Kw/m2    F      %     mph   deg.    mph    mb.     in.     
-------------------------------------------------------------------------
  54    9:10   0.03   45.7    64    1.1    54     2.8   1020.5    0.00 
  54    9:20   0.04   47.3    56    2.8   128     8.9   1020.5    0.00 
  54    9:30   0.04   48.0    53    2.7    54     7.3   1020.4    0.00 
  54    9:40   0.04   48.4    54    3.5    55    11.9   1020.2    0.00 
  54    9:50   0.06   48.9    56    4.2   139    11.8   1020.2    0.00 
  54   10:00   0.08   49.1    54    4.2    99     9.2   1020.3    0.00 
  54   10:10   0.09   49.5    53    2.7    77     6.6   1020.3    0.00 
  54   10:20   0.13   49.6    54    7.7   132    16.1   1020.3    0.00 
  54   10:30   0.50   50.0    58    8.6   166    17.6   1020.2    0.00 
  54   10:40   0.49   49.9    55    9.5   142    18.3   1020.3    0.00 
  54   10:50   0.57   50.4    52    8.6   141    16.4   1020.0    0.00 
  54   11:00   0.41   50.7    54    9.2   164    19.2   1019.8    0.00 
  54   11:10   0.54   50.9    54    8.6   154    19.2   1019.7    0.00 
  54   11:20   0.51   51.0    56   10.8   155    20.7   1019.5    0.00 
  54   11:30   0.64   51.1    56   11.4   156    20.8   1019.4    0.00 
  54   11:40   0.39   51.0    56   10.1   166    19.4   1019.4    0.00 
  54   11:50   0.73   51.7    56    9.6   172    18.5   1019.3    0.00 
  54   12:00   0.71   51.6    56   13.3   166    24.3   1019.3    0.00 
  54   12:10   0.62   51.2    58   12.1   156    25.6   1019.2    0.00 
  54   12:20   0.68   51.9    56    9.9   176    19.5   1019.0    0.00 
  54   12:30   0.69   52.0    57   10.1   171    20.0   1018.7    0.00 
  54   12:40   0.69   52.1    55   10.8   176    21.0   1018.6    0.00 
  54   12:50   0.69   52.1    56   11.2   173    21.8   1018.5    0.00 
  54   13:00   0.72   52.8    56    8.3   178    20.6   1018.6    0.00 
  54   13:10   0.71   53.1    56    9.0   172    22.6   1018.5    0.00 
  54   13:20   0.68   53.1    55    8.4   176    21.0   1018.4    0.00 
  54   13:30   0.70   53.3    55    7.2   177    19.0   1018.3    0.00 
  54   13:40   0.69   53.5    53    8.0   178    18.8   1018.3    0.00 
  54   13:50   0.64   53.9    52    6.3   177    14.0   1018.2    0.00 
  54   14:00   0.62   54.0    50    6.4   188    15.2   1018.1    0.00 
  54   14:10   0.61   53.7    47    6.7   172    15.6   1018.0    0.00 
  54   14:20   0.60   53.9    47    6.8   173    18.3   1017.9    0.00 
  54   14:30   0.58   53.9    46    5.7   180    13.4   1017.9    0.00 
  54   14:40   0.56   53.8    50    7.0   178    16.1   1017.9    0.00 
  54   14:50   0.54   54.1    50    4.9   188    12.0   1018.0    0.00 
  54   15:00   0.52   54.6    50    4.4   182    11.7   1018.0    0.00 
  54   15:10   0.49   54.3    51    3.5   201    11.3   1018.0    0.00 
  54   15:20   0.47   54.2    50    5.2   188    12.3   1018.0    0.00 
  54   15:30   0.44   53.5    50    4.8   182    14.0   1018.1    0.00 
  54   15:40   0.41   54.0    49    5.2   181    13.2   1018.0    0.00 
  54   15:50   0.38   53.6    51    4.7   190    11.1   1017.9    0.00 
  54   16:00   0.35   53.7    55    3.8   198    12.9   1017.9    0.00 
  54   16:10   0.33   52.9    54    6.2   143    13.7   1017.8    0.00 
  54   16:20   0.30   52.2    54    7.5    89    18.6   1017.7    0.00 
  54   16:30   0.26   51.6    55    8.3    84    20.8   1017.6    0.00 
  54   16:40   0.23   51.6    56    8.0    89    21.3   1017.5    0.00 
  54   16:50   0.20   51.6    55    6.6    87    15.6   1017.5    0.00 
  54   17:00   0.17   51.3    55    6.5    99    15.4   1017.6    0.00 
  54   17:10   0.13   51.3    55    5.5    99    15.9   1017.6    0.00 
  54   17:20   0.05   50.9    54    5.8    93    14.3   1017.6    0.00 
  54   17:30   0.04   50.5    53    6.7    75    15.6   1017.8    0.00 
  54   17:40   0.03   50.2    50    5.8    84    20.0   1018.0    0.00 
  54   17:50   0.01   49.8    50    6.8    72    17.6   1018.2    0.00 
  54   18:00   0.01   49.6    52    6.9    71    16.7   1018.4    0.00 
  54   18:10   0.00   49.4    54    5.3    67    17.0   1018.5    0.00 
  54   18:20   0.00   49.1    56    4.7    57    13.2   1018.6    0.00 
  54   18:30   0.00   48.8    55    3.4    65    13.5   1018.6    0.00 
  54   18:40   0.00   47.7    59    1.0    19     3.7   1018.7    0.00 
  54   18:50   0.00   46.5    64    2.2     6     4.0   1018.8    0.00 
  54   19:00   0.00   45.5    68    2.1    34     3.6   1019.0    0.00 
  54   19:10   0.00   44.7    70    1.8    34     4.1   1019.1    0.00 
  54   19:20   0.00   44.1    72    2.5    32     4.6   1019.2    0.00 
  54   19:30   0.00   43.7    73    2.6     9     5.1   1019.2    0.00 
  54   19:40   0.00   43.3    73    3.2    31     8.3   1019.3    0.00 
  54   19:50   0.00   42.8    74    2.3    44     5.2   1019.4    0.00 
  54   20:00   0.00   42.5    75    3.4    31     7.5   1019.4    0.00 
  54   20:10   0.00   42.3    75    3.9    41     7.6   1019.5    0.00 
  54   20:20   0.00   42.2    74    3.1    44     6.2   1019.6    0.00 
  54   20:30   0.00   42.1    75    2.7    46     5.0   1019.7    0.00 
  54   20:40   0.00   41.8    76    2.2    30     4.9   1019.8    0.00 
  54   20:50   0.00   41.7    76    2.6    42     5.3   1019.7    0.00 
  54   21:00   0.00   42.2    72    2.7    43     6.5   1019.8    0.00 
  54   21:10   0.00   42.9    68    2.8    41     6.6   1020.0    0.00 
  54   21:20   0.00   42.8    69    2.8    34     5.6   1020.0    0.00 
  54   21:30   0.00   42.3    71    2.9    47     5.6   1020.0    0.00 
  54   21:40   0.00   41.8    73    3.4    42     6.0   1020.0    0.00 
  54   21:50   0.00   41.3    75    3.4    47     7.7   1020.0    0.00 
  54   22:00   0.00   41.0    76    3.0    46     6.0   1020.2    0.00 
  54   22:10   0.00   40.7    78    3.2    33     6.1   1020.3    0.00 
  54   22:20   0.00   40.4    79    4.3    26     7.5   1020.3    0.00 
  54   22:30   0.00   40.3    79    3.5    33     5.9   1020.3    0.00 
  54   22:40   0.00   40.2    80    2.9    33     6.5   1020.1    0.00 
  54   22:50   0.00   40.2    80    2.3    45     4.7   1020.0    0.00 
  54   23:00   0.00   40.2    81    3.1    43     6.0   1019.9    0.00 
  54   23:10   0.00   40.2    81    2.7    43     5.0   1020.1    0.00 
  54   23:20   0.00   40.3    81    2.6    44     4.7   1020.1    0.00 
  54   23:30   0.00   40.2    82    3.6    47     6.4   1020.3    0.00 
  54   23:40   0.00   40.4    81    3.7    43     6.5   1020.5    0.00 
  54   23:50   0.00   40.7    79    3.9    39     7.5   1020.6    0.00 
  55    0:00   0.00   40.9    79    3.5    45     6.6   1020.7    0.00 
  55    0:10   0.00   40.8    78    3.2    40     5.9   1020.8    0.00 
  55    0:20   0.00   40.5    80    3.4    17     6.7   1021.0    0.00 
  55    0:30   0.00   40.4    80    3.2     3     6.6   1021.1    0.00 
  55    0:40   0.00   40.6    78    3.6    12     6.3   1021.1    0.00 
  55    0:50   0.00   40.3    79    3.1    20     6.2   1020.9    0.00 
  55    1:00   0.00   40.2    79    3.5    47     6.1   1020.6    0.00 
  55    1:10   0.00   40.4    78    3.4    45     6.7   1020.5    0.00 
  55    1:20   0.00   40.6    76    3.0    41     6.1   1020.3    0.00 
  55    1:30   0.00   40.8    75    4.3    53     7.9   1020.2    0.00 
  55    1:40   0.00   41.7    70    3.2    54     6.0   1020.2    0.00 
  55    1:50   0.00   42.4    67    3.4    50     7.5   1020.2    0.00 
  55    2:00   0.00   43.8    62    2.6    66     5.0   1020.3    0.00 
  55    2:10   0.00   44.6    58    2.4    64     5.0   1020.2    0.00 
  55    2:20   0.00   45.4    55    2.3    45     9.1   1020.3    0.00 
  55    2:30   0.00   45.0    57    2.7    52     5.0   1020.3    0.00 
  55    2:40   0.00   44.7    57    2.5    68     5.7   1020.0    0.00 
  55    2:50   0.00   45.2    56    2.1     1     6.0   1019.9    0.00 
  55    3:00   0.00   45.3    56    2.1    64     4.8   1019.7    0.00 
  55    3:10   0.00   44.3    60    3.3    42     8.0   1019.7    0.00 
  55    3:20   0.00   42.5    67    2.5    55     5.3   1019.6    0.00 
  55    3:30   0.00   41.2    71    3.1    47     6.1   1019.7    0.00 
  55    3:40   0.00   40.6    73    3.2    42     6.4   1019.6    0.00 
  55    3:50   0.00   41.1    71    3.4    41     6.2   1019.7    0.00 
  55    4:00   0.00   40.7    72    3.2    54     5.3   1019.7    0.00 
  55    4:10   0.00   40.0    74    3.4    53     6.0   1019.8    0.00 
  55    4:20   0.00   40.0    74    2.9    40     6.7   1019.7    0.00 
  55    4:30   0.00   40.5    71    3.2    19     6.7   1019.7    0.00 
  55    4:40   0.00   40.6    70    3.4    23     5.3   1019.8    0.00 
  55    4:50   0.00   39.7    74    3.3    23     5.4   1019.8    0.00 
  55    5:00   0.00   39.7    75    3.6    46     7.4   1019.9    0.00 
  55    5:10   0.00   39.7    73    2.7    25     5.0   1019.9    0.00 
  55    5:20   0.00   39.7    73    2.9    34     5.3   1020.0    0.00 
  55    5:30   0.00   40.3    70    3.8     6     7.5   1020.1    0.00 
  55    5:40   0.00   39.8    72    3.7   355     6.1   1020.3    0.00 
  55    5:50   0.00   38.9    76    3.4     7     5.6   1020.3    0.00 
  55    6:00   0.00   38.6    77    3.6    10     5.7   1020.1    0.00 
  55    6:10   0.00   38.5    78    3.5    15     7.5   1020.1    0.00 
  55    6:20   0.00   38.6    77    4.4     6     7.2   1020.1    0.00 
  55    6:30   0.00   38.3    78    3.7    21     7.3   1020.2    0.00 
  55    6:40   0.00   38.2    77    4.5    30     8.6   1020.4    0.00 
  55    6:50   0.01   38.3    76    3.8    22     7.5   1020.6    0.00 
  55    7:00   0.01   38.3    75    4.3     7     8.4   1020.7    0.00 
  55    7:10   0.01   38.4    75    4.1    17     7.7   1020.7    0.00 
  55    7:20   0.01   38.5    74    3.8    17     6.7   1020.8    0.00 
  55    7:30   0.01   38.4    76    4.6     2     7.7   1020.8    0.00 
  55    7:40   0.01   38.4    77    3.3    23     5.9   1020.9    0.00 
  55    7:50   0.01   38.6    76    2.9    38     4.8   1021.0    0.00 
  55    8:00   0.01   38.7    76    4.6    21     8.2   1021.1    0.00 
  55    8:10   0.03   38.6    77    4.3    12     7.4   1021.2    0.00 
  55    8:20   0.03   39.1    75    3.6    15     6.6   1021.1    0.00 
  55    8:30   0.03   39.9    72    3.6    26     7.3   1021.1    0.00 
  55    8:40   0.03   40.3    72    2.5    25     6.8   1021.1    0.00 
  55    8:50   0.03   41.1    70    2.2    40     4.9   1021.2    0.00 
  55    9:00   0.03   41.5    70    1.4   353     2.8   1021.3    0.00 

Return to Big Creek Reserve Entrance graphs page.


Western Regional Climate Center,wrcc@dri.edu